Mist van: 16-11-2018 08:00 tot: 11:00 waarschuwing voor: Mist niveau: Geel info button

METAR rapporten vliegvelden

   
EHAM - Amsterdam
Gewijzigd: 16-11-2018 09:25
Mist, Bewolking  
Mist, Bewolking  
   Wind: OZO 14.8 km/h
Wind: OZO 14.8 km/h
Temperatuur: 3°C
Voelt als: -1°C
Dauwpunt: 3°C
Vochtigheid: 100%
Barometer: 1028 hPa
Bewolking: Bewolking
Zicht: 1 km
Bewolking: Grotendeels bewolkt 100 ft,
Bewolking 200 ft
EHAM 160825Z 12008KT 090V150 0900 R18C/0900N R27/1100N R18R/1100U R06/0750N FG BKN001 OVC002 03/03 Q1028 NOSIG
EHBK - Maastricht
Gewijzigd: 16-11-2018 09:25
Helder  
Helder  
   Wind: varieert 3.7 km/h
Wind: varieert 3.7 km/h
Temperatuur: 2°C
Dauwpunt: 1°C
Vochtigheid: 93%
Barometer: 1027 hPa
Bewolking: Helder
Zicht: meer dan 10 km
Bewolking: Helder
EHBK 160825Z AUTO VRB02KT 9999 NCD 02/01 Q1027 NOSIG
ELLX - Luxemburg
Gewijzigd: 16-11-2018 09:20
Nevel, Grotendeels bewolkt  
Nevel, Grotendeels bewolkt  
   Wind: Oosten 11.1 km/h
Wind: Oosten 11.1 km/h
Temperatuur: 3°C
Voelt als: 0°C
Dauwpunt: 3°C
Vochtigheid: 100%
Barometer: 1027 hPa
Bewolking: Grotendeels bewolkt
Zicht: 3 km
Bewolking: Licht bewolkt,
Grotendeels bewolkt 200 ft
ELLX 160820Z 08006KT 050V120 2500 BR FEW000 BKN002 03/03 Q1027 BECMG 4000 BR
EDDL - Dusseldorf
Gewijzigd: 16-11-2018 09:20
Helder  
Helder  
   Wind: ZZO 18.5 km/h
Wind: ZZO 18.5 km/h
Temperatuur: 6°C
Voelt als: 3°C
Dauwpunt: 3°C
Vochtigheid: 81%
Barometer: 1028 hPa
Zicht: meer dan 10 km
Bewolking: Helder
EDDL 160820Z 15010KT 120V180 CAVOK 06/03 Q1028 NOSIG
  

Script ontwikkeld door  Saratoga-weather.org Aangepast voor de template door  Weerstation Leuven